Time;durP1;ratioP1;P1;durP2;ratioP2;P2;SDS_P1;SDS_P2;PMS_P1;PMS_P2;Temp;Humidity;BMP_temperature;BMP_pressure;BME280_temperature;BME280_humidity;BME280_pressure;Samples;Min_cycle;Max_cycle;Signal;HPM_P1;HPM_P2
2023/05/20 00:03:08;;;;;;;6.75;3.67;;;;;;;14.98;77.57;100304.22;10461406;28;20131;-66
2023/05/20 00:08:09;;;;;;;7.20;4.10;;;;;;;14.89;78.11;100313.44;10460849;28;20049;-66
2023/05/20 00:13:10;;;;;;;4.82;3.47;;;;;;;14.83;78.34;100312.38;10460548;28;20098;-67
2023/05/20 00:18:11;;;;;;;7.88;3.70;;;;;;;14.76;78.41;100303.50;10460528;28;20041;-66
2023/05/20 00:23:12;;;;;;;15.98;4.03;;;;;;;14.55;78.19;100259.78;10459416;28;20652;-66
2023/05/20 00:28:12;;;;;;;7.95;3.10;;;;;;;14.69;78.37;100276.72;10460454;28;20536;-66
2023/05/20 00:33:13;;;;;;;6.85;3.65;;;;;;;14.18;78.68;100204.81;10457803;28;20041;-66
2023/05/20 00:38:14;;;;;;;8.05;3.88;;;;;;;14.57;79.36;100292.47;10458977;28;20386;-66
2023/05/20 00:43:15;;;;;;;9.95;3.80;;;;;;;14.32;80.40;100309.94;10458739;28;20097;-66
2023/05/20 00:48:16;;;;;;;6.35;4.15;;;;;;;14.08;81.23;100306.66;10458568;28;20475;-66
2023/05/20 00:53:20;;;;;;;6.45;4.45;;;;;;;13.66;81.93;100291.44;10458926;28;20036;-66
2023/05/20 00:58:20;;;;;;;;;;;;;;;13.92;82.64;100328.28;10459434;28;20037;-66
2023/05/20 01:03:21;;;;;;;15.10;4.47;;;;;;;13.61;81.21;100324.06;10458599;28;20376;-66
2023/05/20 01:08:24;;;;;;;40.58;6.43;;;;;;;13.39;82.25;100315.16;10457017;28;20098;-66
2023/05/20 01:13:32;;;;;;;18.20;4.97;;;;;;;13.22;83.75;100311.00;10457809;28;20044;-65
2023/05/20 01:18:34;;;;;;;8.68;4.18;;;;;;;13.19;83.36;100303.38;10447238;28;20078;-66
2023/05/20 01:23:40;;;;;;;11.73;4.50;;;;;;;13.19;84.86;100314.06;10414026;28;20045;-66
2023/05/20 01:28:44;;;;;;;12.07;3.97;;;;;;;12.99;83.84;100303.97;10417206;28;20068;-66
2023/05/20 01:33:50;;;;;;;8.05;4.28;;;;;;;12.49;85.22;100252.19;10434203;28;20068;-65
2023/05/20 01:38:53;;;;;;;7.63;4.50;;;;;;;12.65;86.09;100296.50;10457552;28;20049;-66
2023/05/20 01:43:54;;;;;;;9.68;4.35;;;;;;;12.78;85.78;100312.69;10456370;28;20040;-66
2023/05/20 01:48:55;;;;;;;33.75;6.18;;;;;;;12.43;85.80;100252.94;10421851;28;20041;-67
2023/05/20 01:53:56;;;;;;;6.53;4.43;;;;;;;12.62;85.49;100267.53;10413674;28;20037;-66
2023/05/20 01:58:57;;;;;;;16.88;4.78;;;;;;;13.02;85.35;100316.09;10414440;28;20047;-66
2023/05/20 02:03:57;;;;;;;8.20;4.50;;;;;;;12.71;85.13;100249.63;10413424;28;20119;-66
2023/05/20 02:08:58;;;;;;;14.32;4.28;;;;;;;13.20;85.42;100329.88;10414823;28;20041;-67
2023/05/20 02:13:59;;;;;;;23.92;4.97;;;;;;;12.80;85.21;100272.50;10413312;28;20375;-66
2023/05/20 02:19:00;;;;;;;8.52;3.97;;;;;;;13.22;85.72;100327.00;10414195;28;20128;-67
2023/05/20 02:24:01;;;;;;;54.40;5.75;;;;;;;13.32;85.45;100311.59;10414460;28;20065;-66
2023/05/20 02:29:02;;;;;;;14.00;4.25;;;;;;;13.51;85.51;100320.03;10414359;28;20065;-66
2023/05/20 02:34:03;;;;;;;7.90;3.40;;;;;;;13.82;84.83;100328.59;10414533;28;20045;-66
2023/05/20 02:39:04;;;;;;;9.23;3.97;;;;;;;13.94;84.32;100312.91;10413649;28;20052;-66
2023/05/20 02:44:05;;;;;;;5.88;3.13;;;;;;;14.25;83.58;100341.94;10412378;28;20037;-66
2023/05/20 02:49:05;;;;;;;13.02;3.58;;;;;;;14.44;82.92;100347.66;10413582;28;20072;-66
2023/05/20 02:54:06;;;;;;;8.77;3.42;;;;;;;14.79;81.77;100340.53;10413266;28;20116;-66
2023/05/20 02:59:07;;;;;;;8.35;3.13;;;;;;;15.29;79.60;100330.53;10412659;28;20416;-66
2023/05/20 03:04:08;;;;;;;6.90;2.80;;;;;;;15.61;78.10;100285.34;10412645;28;20045;-66
2023/05/20 03:09:09;;;;;;;6.25;3.03;;;;;;;16.23;75.23;100257.41;10412635;28;20124;-66
2023/05/20 03:14:10;;;;;;;5.03;3.28;;;;;;;17.26;72.64;100335.44;10411902;28;20063;-67
2023/05/20 03:19:10;;;;;;;5.05;2.97;;;;;;;17.76;70.33;100330.22;10412376;28;20128;-66
2023/05/20 03:24:11;;;;;;;6.47;3.08;;;;;;;18.35;68.25;100338.16;10413311;28;20048;-66
2023/05/20 03:29:12;;;;;;;4.57;2.85;;;;;;;19.25;66.38;100364.66;10416304;28;20057;-66
2023/05/20 03:34:13;;;;;;;9.35;3.70;;;;;;;19.87;64.69;100367.22;10420824;28;20045;-67
2023/05/20 03:39:13;;;;;;;12.27;3.33;;;;;;;20.74;61.78;100386.47;10421012;28;20041;-66
2023/05/20 03:44:14;;;;;;;9.20;3.50;;;;;;;21.06;60.42;100351.81;10419830;28;20413;-66
2023/05/20 03:49:15;;;;;;;12.40;3.33;;;;;;;21.99;58.49;100392.38;10420388;28;20037;-66
2023/05/20 03:54:16;;;;;;;8.23;3.80;;;;;;;22.00;57.68;100394.00;10419462;28;20041;-66
2023/05/20 03:59:18;;;;;;;8.73;3.90;;;;;;;21.94;58.10;100403.88;10419512;28;20041;-66
2023/05/20 04:04:18;;;;;;;10.90;4.38;;;;;;;22.08;57.45;100388.19;10419607;28;20033;-66
2023/05/20 04:09:19;;;;;;;14.50;4.38;;;;;;;22.30;57.10;100334.22;10419043;28;20409;-67
2023/05/20 04:14:20;;;;;;;11.70;4.68;;;;;;;23.30;55.63;100381.19;10419360;28;20132;-67
2023/05/20 04:19:22;;;;;;;9.75;4.25;;;;;;;23.72;53.79;100377.94;10420857;28;20123;-67
2023/05/20 04:24:25;;;;;;;8.35;4.70;;;;;;;23.98;52.74;100341.03;10459317;28;20405;-66
2023/05/20 04:29:27;;;;;;;12.88;4.55;;;;;;;24.93;51.84;100392.06;10447935;28;20054;-67
2023/05/20 04:34:33;;;;;;;11.95;4.63;;;;;;;25.26;50.32;100407.25;10418714;28;20038;-67
2023/05/20 04:39:35;;;;;;;12.80;4.68;;;;;;;25.43;50.34;100394.28;10417003;28;20452;-66
2023/05/20 04:44:36;;;;;;;9.15;4.78;;;;;;;25.60;49.85;100413.09;10419029;28;20382;-67
2023/05/20 04:49:37;;;;;;;8.65;4.57;;;;;;;25.39;49.78;100406.75;10417348;28;20072;-66
2023/05/20 04:54:39;;;;;;;14.13;4.57;;;;;;;24.99;49.78;100408.16;10417056;28;20037;-67
2023/05/20 04:59:39;;;;;;;14.18;4.97;;;;;;;24.59;50.49;100390.50;10416865;28;20045;-67
2023/05/20 05:04:40;;;;;;;11.07;4.75;;;;;;;23.91;50.59;100375.72;10417721;28;20045;-67
2023/05/20 05:09:41;;;;;;;7.18;4.60;;;;;;;23.31;51.66;100335.97;10416982;28;20045;-67
2023/05/20 05:14:42;;;;;;;7.93;4.40;;;;;;;23.12;51.62;100357.09;10415034;28;20038;-67
2023/05/20 05:19:42;;;;;;;14.15;4.10;;;;;;;22.84;51.87;100382.44;10416064;28;20049;-66
2023/05/20 05:24:43;;;;;;;7.03;3.90;;;;;;;22.63;51.55;100352.31;10415991;28;20038;-68
2023/05/20 05:29:44;;;;;;;10.10;3.80;;;;;;;22.53;51.58;100328.63;10417247;28;20504;-67
2023/05/20 05:34:45;;;;;;;8.32;3.95;;;;;;;23.09;51.64;100379.28;10415987;28;20183;-67
2023/05/20 05:39:46;;;;;;;7.13;3.75;;;;;;;23.32;51.11;100394.50;10415818;28;20432;-67
2023/05/20 05:44:47;;;;;;;13.40;4.07;;;;;;;23.04;51.42;100325.06;10415577;28;20497;-67
2023/05/20 05:49:48;;;;;;;6.07;3.45;;;;;;;22.96;50.59;100316.28;10416118;28;20038;-67
2023/05/20 05:54:49;;;;;;;7.70;3.70;;;;;;;23.21;50.81;100317.66;10414326;28;20038;-67
2023/05/20 05:59:50;;;;;;;6.70;3.00;;;;;;;23.42;48.40;100378.38;10414461;28;20046;-67
2023/05/20 06:04:51;;;;;;;12.68;2.90;;;;;;;23.30;47.78;100324.28;10417373;28;20037;-69
2023/05/20 06:09:52;;;;;;;9.95;3.58;;;;;;;23.77;47.62;100367.16;10426292;28;20501;-68
2023/05/20 06:14:52;;;;;;;5.32;3.30;;;;;;;23.74;46.70;100369.56;10423514;28;20131;-66
2023/05/20 06:19:53;;;;;;;5.78;2.58;;;;;;;23.94;45.76;100367.06;10412870;28;20405;-69
2023/05/20 06:24:59;;;;;;;5.53;3.28;;;;;;;24.05;46.33;100347.09;10414283;28;20456;-68
2023/05/20 06:30:00;;;;;;;7.95;3.10;;;;;;;24.50;46.07;100355.91;10413555;28;20045;-66
2023/05/20 06:35:00;;;;;;;7.07;2.83;;;;;;;24.32;44.10;100348.94;10414563;28;20418;-67
2023/05/20 06:40:03;;;;;;;10.00;2.90;;;;;;;24.32;43.99;100297.34;10412690;28;20093;-67
2023/05/20 06:45:05;;;;;;;4.00;2.70;;;;;;;24.24;42.79;100298.66;10412063;28;20053;-67
2023/05/20 06:50:06;;;;;;;8.70;2.80;;;;;;;24.02;40.69;100273.50;10413371;28;20377;-67
2023/05/20 06:55:07;;;;;;;4.93;2.63;;;;;;;24.47;39.92;100330.09;10413218;28;20041;-66
2023/05/20 07:00:09;;;;;;;11.00;3.10;;;;;;;24.77;41.59;100331.41;10413055;28;20075;-66
2023/05/20 07:05:09;;;;;;;11.32;3.53;;;;;;;24.66;40.44;100307.97;10412334;28;20041;-67
2023/05/20 07:10:10;;;;;;;7.30;2.45;;;;;;;24.70;40.22;100333.50;10411780;28;20095;-66
2023/05/20 07:15:11;;;;;;;7.57;2.97;;;;;;;24.56;41.60;100336.69;10413785;28;20128;-67
2023/05/20 07:20:12;;;;;;;5.38;2.95;;;;;;;23.97;41.60;100258.03;10413177;28;20050;-66
2023/05/20 07:25:13;;;;;;;7.85;3.10;;;;;;;24.91;41.63;100351.56;10411803;28;20042;-66
2023/05/20 07:30:14;;;;;;;19.60;4.03;;;;;;;25.15;42.42;100348.47;10417276;28;20077;-66
2023/05/20 07:35:15;;;;;;;15.40;6.53;;;;;;;24.79;42.27;100266.72;10426249;28;20068;-65
2023/05/20 07:40:15;;;;;;;6.57;4.25;;;;;;;25.15;42.04;100316.66;10421169;28;20608;-67
2023/05/20 07:45:16;;;;;;;9.10;2.92;;;;;;;25.12;40.92;100324.50;10412368;28;20041;-66
2023/05/20 07:50:17;;;;;;;9.00;3.92;;;;;;;25.35;41.62;100351.28;10411760;28;20048;-67
2023/05/20 07:55:18;;;;;;;7.50;2.63;;;;;;;25.61;41.07;100364.97;10411669;28;20075;-67
2023/05/20 08:00:19;;;;;;;9.48;2.85;;;;;;;25.36;40.21;100365.69;10412678;28;20049;-66
2023/05/20 08:05:21;;;;;;;14.23;3.40;;;;;;;25.37;40.75;100340.97;10411899;28;20033;-68
2023/05/20 08:10:22;;;;;;;5.60;2.70;;;;;;;25.67;41.37;100358.47;10411501;28;20048;-68
2023/05/20 08:15:23;;;;;;;5.63;2.83;;;;;;;25.39;39.40;100299.88;10414855;28;20042;-67
2023/05/20 08:20:25;;;;;;;17.60;3.55;;;;;;;25.84;38.53;100359.06;10419448;28;20515;-67
2023/05/20 08:25:26;;;;;;;14.45;3.40;;;;;;;25.85;37.69;100343.56;10417487;28;20148;-66
2023/05/20 08:30:27;;;;;;;7.20;2.75;;;;;;;26.06;37.13;100368.91;10419096;28;20136;-68
2023/05/20 08:35:28;;;;;;;6.05;2.90;;;;;;;25.70;36.64;100366.09;10418065;28;20076;-67
2023/05/20 08:40:28;;;;;;;6.47;2.38;;;;;;;25.49;36.90;100352.44;10418269;28;20050;-66
2023/05/20 08:45:32;;;;;;;11.80;2.15;;;;;;;25.39;36.79;100348.84;10418244;28;20041;-66
2023/05/20 08:50:33;;;;;;;6.53;1.80;;;;;;;25.48;36.95;100350.78;10427864;28;20505;-67
2023/05/20 08:55:45;;;;;;;4.85;2.15;;;;;;;25.52;35.18;100326.59;10435482;28;20038;-66
2023/05/20 09:00:46;;;;;;;5.97;2.00;;;;;;;25.89;35.32;100347.38;10425647;28;20075;-68
2023/05/20 09:05:47;;;;;;;5.72;2.05;;;;;;;26.08;36.40;100274.16;10434312;28;20072;-67
2023/05/20 09:10:51;;;;;;;4.10;1.83;;;;;;;25.93;36.08;100294.84;10442492;28;20088;-68
2023/05/20 09:15:52;;;;;;;9.07;2.35;;;;;;;26.04;36.24;100338.41;10457257;28;20044;-68
2023/05/20 09:20:53;;;;;;;7.55;2.20;;;;;;;26.41;35.70;100314.47;10416861;28;20049;-67
2023/05/20 09:25:53;;;;;;;5.65;2.55;;;;;;;26.93;35.04;100298.84;10415451;28;20053;-68
2023/05/20 09:31:00;;;;;;;11.63;2.28;;;;;;;26.97;34.33;100304.56;10428695;28;20098;-67
2023/05/20 09:36:07;;;;;;;15.05;2.30;;;;;;;26.68;35.05;100310.63;10421559;28;20073;-68
2023/05/20 09:41:12;;;;;;;8.77;2.40;;;;;;;26.33;34.93;100273.34;10428890;28;20049;-68
2023/05/20 09:46:15;;;;;;;7.15;2.60;;;;;;;26.31;34.88;100272.78;10432020;28;20045;-68
2023/05/20 09:51:16;;;;;;;10.63;2.60;;;;;;;26.75;34.29;100296.72;10456298;28;20135;-68
2023/05/20 09:56:21;;;;;;;6.65;2.42;;;;;;;26.94;33.47;100289.56;10456454;28;20052;-68
2023/05/20 10:01:21;;;;;;;8.98;2.30;;;;;;;27.01;33.66;100279.19;10427412;28;20142;-69
2023/05/20 10:06:46;;;;;;;16.80;2.83;;;;;;;27.21;31.81;100291.94;10415049;28;20084;-68
2023/05/20 10:12:05;;;;;;;8.20;2.33;;;;;;;26.37;32.96;100163.56;10415072;28;20079;-69
2023/05/20 10:17:29;;;;;;;13.05;3.03;;;;;;;27.39;32.47;100274.13;10414618;28;20041;-68
2023/05/20 10:22:33;;;;;;;12.55;2.35;;;;;;;27.28;31.75;100259.72;10414592;28;20037;-68
2023/05/20 10:27:46;;;;;;;14.52;2.75;;;;;;;27.46;31.99;100266.44;10413610;28;20489;-69
2023/05/20 10:32:55;;;;;;;13.23;2.33;;;;;;;27.03;30.06;100216.19;10414150;28;20042;-67
2023/05/20 10:38:10;;;;;;;12.32;3.25;;;;;;;27.52;31.25;100264.47;10413280;28;20037;-69
2023/05/20 10:43:13;;;;;;;23.23;2.70;;;;;;;27.02;32.30;100181.88;10413896;28;20133;-68
2023/05/20 10:48:23;;;;;;;9.25;2.78;;;;;;;27.51;30.96;100232.84;10413613;28;20132;-68
2023/05/20 10:53:26;;;;;;;26.33;3.47;;;;;;;27.71;31.80;100237.34;10412955;28;20107;-68
2023/05/20 10:58:27;;;;;;;8.70;3.05;;;;;;;27.66;31.42;100219.09;10420524;28;20045;-69
2023/05/20 11:03:29;;;;;;;12.70;4.40;;;;;;;27.57;31.09;100203.63;10423152;28;20444;-67
2023/05/20 11:08:32;;;;;;;11.43;3.55;;;;;;;27.69;30.31;100207.59;10439416;28;20041;-69
2023/05/20 11:13:33;;;;;;;12.65;2.70;;;;;;;27.63;31.33;100214.19;10442636;28;20040;-66
2023/05/20 11:18:34;;;;;;;13.77;2.88;;;;;;;27.94;30.64;100203.06;10429449;28;20409;-69
2023/05/20 11:23:36;;;;;;;8.40;2.75;;;;;;;27.92;30.46;100210.75;10414154;28;20045;-66
2023/05/20 11:28:37;;;;;;;13.02;2.97;;;;;;;27.71;30.35;100161.75;10430120;28;20068;-69
2023/05/20 11:33:42;;;;;;;15.02;2.88;;;;;;;27.81;29.81;100198.28;10453412;28;20069;-67
2023/05/20 11:38:46;;;;;;;11.63;3.17;;;;;;;27.43;30.21;100195.25;10453234;28;20061;-67
2023/05/20 11:43:55;;;;;;;18.60;3.65;;;;;;;27.32;29.79;100153.63;10452973;28;20139;-68
2023/05/20 11:48:57;;;;;;;27.38;3.80;;;;;;;27.68;29.74;100164.25;10454461;28;20041;-68
2023/05/20 11:54:02;;;;;;;9.35;3.10;;;;;;;27.86;29.68;100192.78;10460941;28;20493;-68
2023/05/20 11:59:04;;;;;;;18.65;2.90;;;;;;;27.60;29.49;100197.59;10460540;28;20067;-68
2023/05/20 12:04:06;;;;;;;31.57;3.40;;;;;;;27.57;29.40;100188.06;10461190;28;20041;-67
2023/05/20 12:09:07;;;;;;;8.90;2.85;;;;;;;27.47;28.74;100182.69;10461365;28;20272;-68
2023/05/20 12:14:08;;;;;;;14.13;3.15;;;;;;;27.44;29.10;100178.63;10460316;28;20489;-67
2023/05/20 12:19:09;;;;;;;11.07;3.30;;;;;;;27.68;29.29;100188.81;10461085;28;20037;-69
2023/05/20 12:24:10;;;;;;;9.32;2.58;;;;;;;27.54;29.32;100181.25;10459797;28;20041;-68
2023/05/20 12:29:10;;;;;;;14.60;3.17;;;;;;;27.36;28.64;100179.22;10458897;28;20052;-67
2023/05/20 12:34:11;;;;;;;30.45;2.95;;;;;;;27.50;29.58;100191.13;10460480;28;20393;-67
2023/05/20 12:39:16;;;;;;;11.98;3.15;;;;;;;27.33;28.96;100189.88;10460553;28;20480;-68
2023/05/20 12:44:17;;;;;;;18.08;3.03;;;;;;;27.23;29.90;100183.41;10458918;28;20049;-68
2023/05/20 12:49:18;;;;;;;12.05;2.70;;;;;;;27.31;29.63;100187.41;10459439;28;20559;-67
2023/05/20 12:54:19;;;;;;;14.10;3.38;;;;;;;27.64;29.91;100191.28;10458424;28;20389;-67
2023/05/20 12:59:20;;;;;;;6.57;2.67;;;;;;;26.91;29.25;100049.44;10458405;28;20124;-68
2023/05/20 13:04:21;;;;;;;13.40;3.47;;;;;;;27.34;30.55;100156.84;10457141;28;20552;-68
2023/05/20 13:09:22;;;;;;;32.45;3.45;;;;;;;27.32;31.33;100153.63;10458607;28;20036;-68
2023/05/20 13:14:22;;;;;;;9.60;2.45;;;;;;;27.45;31.33;100163.88;10457771;28;20045;-68
2023/05/20 13:19:23;;;;;;;9.60;2.35;;;;;;;27.35;31.53;100144.84;10457877;28;20496;-67
2023/05/20 13:24:24;;;;;;;9.02;3.35;;;;;;;27.18;30.79;100120.69;10457511;28;20049;-67
2023/05/20 13:29:26;;;;;;;12.90;3.30;;;;;;;27.26;30.45;100176.56;10457046;28;20057;-67
2023/05/20 13:34:27;;;;;;;11.43;2.78;;;;;;;27.09;31.22;100152.38;10457762;28;20114;-67
2023/05/20 13:39:28;;;;;;;18.77;5.10;;;;;;;27.05;31.34;100148.59;10457282;28;20072;-67
2023/05/20 13:44:29;;;;;;;15.15;3.15;;;;;;;26.97;31.74;100149.16;10456386;28;20044;-67
2023/05/20 13:49:30;;;;;;;14.93;4.20;;;;;;;26.99;31.32;100147.81;10456942;28;20044;-67
2023/05/20 13:54:30;;;;;;;16.92;3.05;;;;;;;26.70;31.07;100114.97;10456063;28;20448;-69
2023/05/20 13:59:31;;;;;;;9.32;2.40;;;;;;;26.61;31.36;100135.72;10455865;28;20041;-67
2023/05/20 14:04:38;;;;;;;16.98;3.53;;;;;;;26.59;31.85;100148.81;10456342;28;20072;-67
2023/05/20 14:09:38;;;;;;;9.48;3.08;;;;;;;26.29;31.76;100128.72;10455920;28;20574;-68
2023/05/20 14:14:39;;;;;;;8.43;2.75;;;;;;;25.81;31.87;100073.84;10455942;28;20090;-67
2023/05/20 14:19:40;;;;;;;15.75;2.78;;;;;;;26.21;31.74;100134.78;10455204;28;20072;-67
2023/05/20 14:24:41;;;;;;;20.98;3.42;;;;;;;26.12;32.51;100126.34;10455064;28;20033;-68
2023/05/20 14:29:42;;;;;;;14.27;2.80;;;;;;;25.98;32.48;100133.47;10456077;28;20084;-67
2023/05/20 14:34:42;;;;;;;11.40;2.83;;;;;;;25.95;32.45;100134.81;10455266;28;20090;-67
2023/05/20 14:39:43;;;;;;;9.75;2.70;;;;;;;25.69;32.42;100106.00;10454708;28;20504;-66
2023/05/20 14:44:44;;;;;;;24.30;2.78;;;;;;;25.88;32.54;100131.59;10455489;28;20037;-67
2023/05/20 14:49:45;;;;;;;9.88;2.88;;;;;;;25.60;32.49;100113.88;10455086;28;20498;-66
2023/05/20 14:54:46;;;;;;;8.73;3.05;;;;;;;25.67;32.52;100143.56;10454006;28;20037;-67
2023/05/20 14:59:49;;;;;;;10.07;2.53;;;;;;;25.62;32.34;100148.97;10454412;28;20056;-67
2023/05/20 15:04:50;;;;;;;;;;;;;;;25.69;32.61;100149.50;10453627;28;20037;-67
2023/05/20 15:09:51;;;;;;;11.07;2.85;;;;;;;25.26;33.15;100147.06;10454579;28;19917;-67
2023/05/20 15:14:51;;;;;;;36.58;3.63;;;;;;;25.24;33.40;100165.53;10453666;28;20126;-67
2023/05/20 15:19:52;;;;;;;7.85;2.58;;;;;;;25.12;33.52;100166.84;10454439;28;20136;-67
2023/05/20 15:24:53;;;;;;;20.48;2.70;;;;;;;24.91;34.27;100164.06;10456763;28;20053;-67
2023/05/20 15:29:54;;;;;;;10.00;2.72;;;;;;;24.63;34.49;100148.25;10462874;28;20409;-68
2023/05/20 15:34:55;;;;;;;8.52;3.38;;;;;;;24.50;34.94;100160.38;10461973;28;20099;-67
2023/05/20 15:39:55;;;;;;;8.23;2.75;;;;;;;23.92;34.70;100100.63;10462083;28;20045;-66
2023/05/20 15:44:56;;;;;;;9.35;3.80;;;;;;;23.97;35.47;100144.06;10461277;28;20068;-68
2023/05/20 15:49:57;;;;;;;12.05;2.80;;;;;;;23.82;35.71;100165.66;10461553;28;20044;-68
2023/05/20 15:54:58;;;;;;;11.00;4.07;;;;;;;23.68;35.53;100176.91;10461530;28;20109;-68
2023/05/20 15:59:59;;;;;;;15.50;6.40;;;;;;;23.09;35.97;100105.63;10460674;28;20040;-68
2023/05/20 16:04:59;;;;;;;18.75;10.13;;;;;;;23.11;36.54;100150.38;10461235;28;20488;-68
2023/05/20 16:10:00;;;;;;;18.15;5.35;;;;;;;22.69;37.27;100123.88;10460213;28;20385;-68
2023/05/20 16:15:01;;;;;;;8.73;4.68;;;;;;;22.87;37.63;100195.03;10461272;28;20071;-68
2023/05/20 16:20:05;;;;;;;10.80;4.30;;;;;;;22.50;38.28;100174.03;10460842;28;20095;-70
2023/05/20 16:25:06;;;;;;;17.45;2.83;;;;;;;22.03;38.58;100142.75;10459910;28;20068;-69
2023/05/20 16:30:09;;;;;;;10.93;2.65;;;;;;;22.12;39.10;100197.25;10459236;28;20045;-69
2023/05/20 16:35:10;;;;;;;8.50;2.58;;;;;;;21.64;39.49;100140.00;10459152;28;20037;-68
2023/05/20 16:40:11;;;;;;;9.32;2.75;;;;;;;21.89;39.92;100212.59;10460123;28;20493;-68
2023/05/20 16:45:12;;;;;;;10.35;2.50;;;;;;;21.76;40.42;100209.41;10459411;28;20041;-67
2023/05/20 16:50:13;;;;;;;9.32;2.35;;;;;;;21.65;40.69;100211.91;10459071;28;20091;-67
2023/05/20 16:55:14;;;;;;;12.32;2.53;;;;;;;21.54;40.94;100217.41;10459257;28;20480;-68
2023/05/20 17:00:15;;;;;;;7.75;2.40;;;;;;;21.42;41.23;100218.28;10447228;28;20065;-66
2023/05/20 17:05:16;;;;;;;6.20;1.90;;;;;;;21.28;41.65;100206.09;10438971;28;20045;-69
2023/05/20 17:10:17;;;;;;;5.95;2.08;;;;;;;21.29;42.10;100220.44;10437565;28;20041;-67
2023/05/20 17:15:17;;;;;;;8.00;2.30;;;;;;;21.12;42.12;100196.06;10426976;28;20045;-67
2023/05/20 17:20:18;;;;;;;9.70;2.00;;;;;;;21.17;42.60;100212.38;10432634;28;20044;-68
2023/05/20 17:25:19;;;;;;;9.05;2.13;;;;;;;21.22;42.85;100219.75;10458223;28;20128;-67
2023/05/20 17:30:20;;;;;;;6.63;2.42;;;;;;;21.00;42.86;100196.13;10435955;28;20044;-68
2023/05/20 17:35:24;;;;;;;5.65;2.55;;;;;;;20.37;42.87;100100.66;10454032;28;20519;-68
2023/05/20 17:40:25;;;;;;;6.95;3.22;;;;;;;21.07;42.65;100223.81;10429198;28;20106;-68
2023/05/20 17:45:25;;;;;;;16.83;10.93;;;;;;;21.20;42.30;100247.00;10426992;28;20128;-67
2023/05/20 17:50:26;;;;;;;16.25;9.73;;;;;;;20.75;41.86;100174.81;10414476;28;20132;-68
2023/05/20 17:55:31;;;;;;;11.52;4.88;;;;;;;20.38;41.44;100115.75;10416287;28;20045;-67
2023/05/20 18:00:40;;;;;;;7.00;3.10;;;;;;;20.69;41.39;100173.91;10421351;28;20041;-67
2023/05/20 18:05:41;;;;;;;10.48;3.53;;;;;;;21.04;41.39;100234.28;10432845;28;20041;-68
2023/05/20 18:10:42;;;;;;;10.20;2.78;;;;;;;20.45;40.93;100146.13;10425629;28;20041;-67
2023/05/20 18:15:43;;;;;;;9.10;2.75;;;;;;;20.89;40.99;100230.19;10436560;28;20041;-69
2023/05/20 18:20:43;;;;;;;13.32;2.20;;;;;;;20.69;41.12;100200.06;10433101;28;20046;-68
2023/05/20 18:25:45;;;;;;;5.32;1.90;;;;;;;20.36;41.23;100162.91;10434742;28;20115;-68
2023/05/20 18:30:45;;;;;;;10.95;2.10;;;;;;;20.74;41.23;100227.19;10429114;28;20487;-68
2023/05/20 18:35:46;;;;;;;9.25;2.40;;;;;;;20.67;41.06;100230.03;10430578;28;20029;-68
2023/05/20 18:40:47;;;;;;;7.40;2.25;;;;;;;20.45;41.23;100193.88;10426674;28;20103;-68
2023/05/20 18:45:48;;;;;;;5.55;1.98;;;;;;;19.93;41.73;100135.28;10424503;28;20056;-67
2023/05/20 18:50:48;;;;;;;12.60;2.15;;;;;;;20.43;42.01;100231.91;10414235;28;20061;-67
2023/05/20 18:55:49;;;;;;;8.98;2.47;;;;;;;20.19;42.25;100211.34;10412322;28;20051;-68
2023/05/20 19:00:50;;;;;;;8.45;2.10;;;;;;;20.18;42.78;100212.41;10423434;28;20193;-68
2023/05/20 19:05:51;;;;;;;7.28;2.10;;;;;;;20.15;42.47;100219.09;10452909;28;20468;-67
2023/05/20 19:10:52;;;;;;;4.45;1.83;;;;;;;20.13;42.78;100212.28;10454485;28;20497;-68
2023/05/20 19:15:53;;;;;;;7.20;2.25;;;;;;;19.70;42.85;100151.44;10453854;28;20047;-68
2023/05/20 19:20:54;;;;;;;4.18;1.92;;;;;;;19.99;43.11;100212.53;10439762;28;20047;-67
2023/05/20 19:25:55;;;;;;;2.83;1.63;;;;;;;19.98;43.27;100215.44;10421837;28;20115;-67
2023/05/20 19:30:56;;;;;;;5.43;2.00;;;;;;;19.88;43.48;100199.84;10412408;28;20041;-69
2023/05/20 19:35:57;;;;;;;6.18;2.20;;;;;;;19.33;43.81;100109.28;10422187;28;20033;-66
2023/05/20 19:40:57;;;;;;;8.30;2.08;;;;;;;19.69;43.94;100174.06;10413323;28;20140;-66
2023/05/20 19:45:58;;;;;;;9.40;2.30;;;;;;;19.30;44.56;100111.63;10411893;28;20061;-68
2023/05/20 19:51:01;;;;;;;6.38;2.30;;;;;;;19.58;44.81;100156.78;10412015;28;20052;-67
2023/05/20 19:56:02;;;;;;;7.15;2.20;;;;;;;19.08;45.10;100104.06;10412739;28;20477;-69
2023/05/20 20:01:05;;;;;;;8.35;2.10;;;;;;;19.31;45.61;100167.13;10411554;28;20136;-67
2023/05/20 20:06:06;;;;;;;4.88;2.10;;;;;;;19.20;46.03;100159.84;10411619;28;20048;-67
2023/05/20 20:11:07;;;;;;;8.98;2.00;;;;;;;19.25;46.33;100186.91;10414100;28;20409;-67
2023/05/20 20:16:08;;;;;;;6.15;2.33;;;;;;;18.75;46.45;100114.47;10417781;28;20140;-67
2023/05/20 20:21:10;;;;;;;7.65;1.95;;;;;;;19.18;46.83;100183.50;10419400;28;20186;-67
2023/05/20 20:26:12;;;;;;;6.95;2.35;;;;;;;18.71;47.36;100104.13;10418976;28;20085;-68
2023/05/20 20:31:13;;;;;;;9.25;2.28;;;;;;;19.04;47.45;100151.34;10418970;28;20669;-67
2023/05/20 20:36:14;;;;;;;7.93;2.10;;;;;;;18.45;47.90;100075.69;10419134;28;20037;-68
2023/05/20 20:41:15;;;;;;;3.42;1.80;;;;;;;18.43;48.11;100085.88;10418405;28;20076;-68
2023/05/20 20:46:15;;;;;;;7.07;1.90;;;;;;;18.76;48.68;100162.69;10417548;28;20049;-68
2023/05/20 20:51:16;;;;;;;5.03;1.95;;;;;;;18.50;49.17;100138.78;10417588;28;20096;-68
2023/05/20 20:56:17;;;;;;;9.80;1.75;;;;;;;18.48;49.83;100142.50;10418045;28;20069;-67
2023/05/20 21:01:18;;;;;;;8.18;2.22;;;;;;;18.46;49.95;100147.28;10417313;28;20068;-67
2023/05/20 21:06:19;;;;;;;6.95;2.10;;;;;;;17.79;50.41;100053.09;10415916;28;20041;-68
2023/05/20 21:11:21;;;;;;;13.15;2.47;;;;;;;18.30;50.46;100142.50;10417767;28;20045;-68
2023/05/20 21:16:22;;;;;;;8.98;2.00;;;;;;;18.24;50.91;100146.06;10417119;28;20033;-68
2023/05/20 21:21:23;;;;;;;6.72;2.20;;;;;;;18.01;50.95;100112.63;10416302;28;20056;-67
2023/05/20 21:26:24;;;;;;;5.13;2.00;;;;;;;17.76;50.99;100074.19;10416160;28;20520;-68
2023/05/20 21:31:25;;;;;;;10.93;2.53;;;;;;;17.97;51.36;100121.34;10416624;28;20056;-67
2023/05/20 21:36:25;;;;;;;7.63;1.92;;;;;;;17.97;51.15;100114.09;10416430;28;20047;-68
2023/05/20 21:41:26;;;;;;;6.47;2.00;;;;;;;17.92;51.47;100097.00;10415946;28;20037;-67
2023/05/20 21:46:27;;;;;;;7.65;2.30;;;;;;;17.98;51.54;100121.13;10416131;28;20041;-67
2023/05/20 21:51:28;;;;;;;8.63;2.22;;;;;;;17.49;51.91;100041.38;10415702;28;20037;-68
2023/05/20 21:56:28;;;;;;;6.05;2.20;;;;;;;17.88;52.19;100103.84;10415116;28;20048;-67
2023/05/20 22:01:29;;;;;;;7.80;1.95;;;;;;;17.79;52.48;100106.81;10415645;28;20397;-68
2023/05/20 22:06:34;;;;;;;6.95;1.85;;;;;;;17.77;52.59;100100.88;10414851;28;20040;-67
2023/05/20 22:11:36;;;;;;;5.22;2.22;;;;;;;17.79;52.56;100106.81;10415590;28;20051;-67
2023/05/20 22:16:37;;;;;;;5.47;2.13;;;;;;;17.78;52.51;100097.13;10414955;28;20037;-68
2023/05/20 22:21:39;;;;;;;5.45;2.20;;;;;;;17.37;52.80;100046.63;10414795;28;20049;-68
2023/05/20 22:26:39;;;;;;;4.03;1.75;;;;;;;17.64;52.91;100084.00;10414184;28;20049;-68
2023/05/20 22:31:40;;;;;;;5.25;2.00;;;;;;;17.70;53.09;100108.13;10414228;28;20041;-68
2023/05/20 22:36:41;;;;;;;5.35;2.20;;;;;;;17.65;52.72;100101.75;10414554;28;20037;-68
2023/05/20 22:41:42;;;;;;;3.25;1.90;;;;;;;17.63;53.16;100093.13;10430233;28;20127;-67
2023/05/20 22:46:42;;;;;;;9.10;2.42;;;;;;;17.57;53.69;100103.69;10454346;28;20064;-68
2023/05/20 22:51:44;;;;;;;5.50;2.20;;;;;;;17.51;53.89;100082.25;10454678;28;20041;-67
2023/05/20 22:56:44;;;;;;;8.07;2.30;;;;;;;17.41;54.07;100073.88;10455153;28;20072;-68
2023/05/20 23:01:45;;;;;;;5.90;2.00;;;;;;;16.99;54.53;100012.69;10454062;28;20045;-67